createdAt,value
2022-12-20T00:00:52.290Z,48.03
2022-12-20T00:03:20.423Z,47.17
2022-12-20T00:05:47.824Z,47.73
2022-12-20T00:08:14.913Z,44.17
2022-12-20T00:10:43.942Z,43.83
2022-12-20T00:13:11.797Z,47.37
2022-12-20T00:15:38.416Z,45.73
2022-12-20T00:18:04.962Z,46.60
2022-12-20T00:20:31.399Z,45.70
2022-12-20T00:22:57.677Z,43.27
2022-12-20T00:25:24.225Z,42.50
2022-12-20T00:27:51.043Z,45.77
2022-12-20T00:30:17.831Z,46.13
2022-12-20T00:32:44.776Z,44.03
2022-12-20T00:35:11.705Z,43.10
2022-12-20T00:37:38.179Z,43.13
2022-12-20T00:40:06.181Z,46.13
2022-12-20T00:42:33.144Z,42.03
2022-12-20T00:44:59.734Z,41.57
2022-12-20T00:47:26.065Z,45.73
2022-12-20T00:49:52.355Z,43.67
2022-12-20T00:52:18.652Z,45.77
2022-12-20T00:54:44.979Z,43.57
2022-12-20T00:57:11.268Z,45.37
2022-12-20T00:59:37.638Z,41.93
2022-12-20T01:02:04.220Z,42.10
2022-12-20T01:04:30.722Z,44.27
2022-12-20T01:06:57.084Z,43.53
2022-12-20T01:09:23.400Z,41.73
2022-12-20T01:11:49.690Z,42.63
2022-12-20T01:14:16.821Z,40.40
2022-12-20T01:16:47.423Z,40.83
2022-12-20T01:19:16.348Z,44.50
2022-12-20T01:21:46.043Z,46.87
2022-12-20T01:24:17.008Z,44.57
2022-12-20T01:26:43.957Z,43.37
2022-12-20T01:29:10.766Z,47.07
2022-12-20T01:31:37.425Z,44.90
2022-12-20T01:34:03.751Z,44.70
2022-12-20T01:36:32.952Z,46.77
2022-12-20T01:39:03.842Z,41.17
2022-12-20T01:41:32.042Z,47.30
2022-12-20T01:44:01.473Z,41.93
2022-12-20T01:46:30.411Z,43.60
2022-12-20T01:49:06.511Z,43.37
2022-12-20T01:51:36.880Z,44.70
2022-12-20T01:54:26.239Z,47.23
2022-12-20T01:56:58.531Z,50.90
2022-12-20T01:59:27.146Z,43.77
2022-12-20T02:01:54.534Z,43.93
2022-12-20T02:04:20.984Z,43.93
2022-12-20T02:06:47.279Z,48.03
2022-12-20T02:09:13.562Z,47.43
2022-12-20T02:12:07.580Z,46.43
2022-12-20T02:14:51.120Z,43.87
2022-12-20T02:17:42.358Z,43.63
2022-12-20T02:20:35.011Z,43.37
2022-12-20T02:23:39.059Z,43.40
2022-12-20T02:26:08.322Z,40.07
2022-12-20T02:28:54.702Z,45.13
2022-12-20T02:31:27.499Z,45.20
2022-12-20T02:33:57.701Z,44.80
2022-12-20T02:36:25.351Z,49.87
2022-12-20T02:38:52.093Z,46.63
2022-12-20T02:41:24.857Z,47.13
2022-12-20T02:44:14.909Z,48.47
2022-12-20T02:46:42.361Z,43.30
2022-12-20T02:49:15.363Z,43.83
2022-12-20T02:51:44.634Z,44.80
2022-12-20T02:54:11.600Z,46.57
2022-12-20T02:56:51.702Z,49.63
2022-12-20T02:59:41.539Z,49.93
2022-12-20T03:02:08.499Z,52.13
2022-12-20T03:04:39.131Z,49.40
2022-12-20T03:07:11.516Z,47.27
2022-12-20T03:09:40.213Z,46.57
2022-12-20T03:12:07.895Z,55.00
2022-12-20T03:14:34.238Z,46.90
2022-12-20T03:17:00.658Z,44.60
2022-12-20T03:19:27.122Z,47.97
2022-12-20T03:21:53.422Z,42.43
2022-12-20T03:24:19.992Z,43.23
2022-12-20T03:26:46.314Z,47.07
2022-12-20T03:29:12.685Z,48.30
2022-12-20T03:31:39.308Z,44.53
2022-12-20T03:34:05.804Z,39.77
2022-12-20T03:36:32.375Z,39.80
2022-12-20T03:38:59.013Z,43.20
2022-12-20T03:41:26.748Z,43.80
2022-12-20T03:43:53.173Z,44.33
2022-12-20T03:46:19.578Z,42.20
2022-12-20T03:48:45.903Z,41.37
2022-12-20T03:51:12.293Z,41.87
2022-12-20T03:53:38.616Z,42.93
2022-12-20T03:56:05.202Z,37.50
2022-12-20T03:58:31.463Z,36.30
2022-12-20T04:00:58.533Z,36.13
2022-12-20T04:03:24.979Z,41.63
2022-12-20T04:05:51.346Z,41.53
2022-12-20T04:08:17.620Z,37.50
2022-12-20T04:11:02.682Z,36.20
2022-12-20T04:13:28.925Z,38.93
2022-12-20T04:16:00.042Z,41.83
2022-12-20T04:18:27.122Z,36.43
2022-12-20T04:20:54.002Z,40.57
2022-12-20T04:23:20.342Z,39.63
2022-12-20T04:25:46.647Z,40.57
2022-12-20T04:28:12.973Z,39.57
2022-12-20T04:30:39.368Z,36.43
2022-12-20T04:33:05.656Z,37.63
2022-12-20T04:35:32.833Z,34.27
2022-12-20T04:37:59.133Z,35.83
2022-12-20T04:40:25.516Z,41.90
2022-12-20T04:42:51.801Z,35.83
2022-12-20T04:45:18.149Z,40.37
2022-12-20T04:47:44.554Z,39.70
2022-12-20T04:50:11.003Z,44.23
2022-12-20T04:52:55.912Z,44.43
2022-12-20T04:55:22.402Z,36.43
2022-12-20T04:57:48.955Z,42.53
2022-12-20T05:00:15.661Z,40.07
2022-12-20T05:02:42.143Z,46.20
2022-12-20T05:05:08.807Z,47.07
2022-12-20T05:07:35.140Z,50.10
2022-12-20T05:10:01.411Z,48.93
2022-12-20T05:12:27.724Z,46.30
2022-12-20T05:14:53.988Z,50.23
2022-12-20T05:17:20.304Z,50.87
2022-12-20T05:19:46.765Z,49.33
2022-12-20T05:22:31.758Z,52.20
2022-12-20T05:25:16.610Z,47.97
2022-12-20T05:27:42.920Z,51.47
2022-12-20T05:30:09.731Z,47.17
2022-12-20T05:32:36.064Z,46.57
2022-12-20T05:35:02.465Z,45.67
2022-12-20T05:37:28.748Z,47.47
2022-12-20T05:39:55.084Z,48.30
2022-12-20T05:42:21.391Z,51.47
2022-12-20T05:44:47.709Z,45.97
2022-12-20T05:47:14.124Z,50.20
2022-12-20T05:49:40.488Z,46.97
2022-12-20T05:52:07.655Z,49.23
2022-12-20T05:54:33.962Z,45.50
2022-12-20T05:57:00.206Z,46.17
2022-12-20T05:59:26.540Z,42.37
2022-12-20T06:01:52.893Z,39.53
2022-12-20T06:04:19.368Z,44.40
2022-12-20T06:06:45.792Z,39.67
2022-12-20T06:09:12.108Z,37.27
2022-12-20T06:11:38.415Z,44.47
2022-12-20T06:14:04.790Z,46.70
2022-12-20T06:16:31.363Z,43.17
2022-12-20T06:18:57.733Z,48.20
2022-12-20T06:21:24.276Z,40.13
2022-12-20T06:23:50.586Z,42.13
2022-12-20T06:26:17.074Z,47.10
2022-12-20T06:28:43.452Z,45.40
2022-12-20T06:31:11.475Z,39.97
2022-12-20T06:33:37.901Z,44.37
2022-12-20T06:36:04.707Z,42.93
2022-12-20T06:38:31.038Z,42.20
2022-12-20T06:40:57.319Z,45.33
2022-12-20T06:43:23.586Z,50.83
2022-12-20T06:45:50.109Z,39.60
2022-12-20T06:48:16.663Z,45.17
2022-12-20T06:50:43.005Z,48.00
2022-12-20T06:53:09.383Z,49.93
2022-12-20T06:55:35.691Z,46.70
2022-12-20T06:58:03.694Z,51.97
2022-12-20T07:00:30.168Z,48.37
2022-12-20T07:02:56.760Z,47.57
2022-12-20T07:05:23.167Z,50.00
2022-12-20T07:07:49.733Z,49.60
2022-12-20T07:10:16.367Z,49.07
2022-12-20T07:12:47.802Z,47.47
2022-12-20T07:15:15.245Z,51.13
2022-12-20T07:17:41.701Z,53.10
2022-12-20T07:20:13.175Z,48.80
2022-12-20T07:22:40.661Z,50.87
2022-12-20T07:25:07.175Z,52.53
2022-12-20T07:27:33.493Z,51.77
2022-12-20T07:30:00.232Z,50.50
2022-12-20T07:32:26.528Z,46.77
2022-12-20T07:34:53.505Z,47.37
2022-12-20T07:37:19.779Z,46.90
2022-12-20T07:39:46.080Z,49.10
2022-12-20T07:42:12.450Z,51.73
2022-12-20T07:44:38.785Z,47.90
2022-12-20T07:47:05.206Z,53.50
2022-12-20T07:49:31.657Z,54.70
2022-12-20T07:51:59.855Z,49.33
2022-12-20T07:54:29.943Z,48.47
2022-12-20T07:57:00.583Z,52.87
2022-12-20T07:59:33.731Z,51.77
2022-12-20T08:02:05.008Z,53.70
2022-12-20T08:04:33.712Z,54.00
2022-12-20T08:07:01.296Z,52.23
2022-12-20T08:09:31.279Z,50.93
2022-12-20T08:11:58.032Z,47.83
2022-12-20T08:14:24.565Z,55.17
2022-12-20T08:16:50.882Z,51.47
2022-12-20T08:19:17.183Z,53.83
2022-12-20T08:21:43.528Z,49.83
2022-12-20T08:24:09.907Z,47.93
2022-12-20T08:26:40.859Z,49.63
2022-12-20T08:29:08.588Z,50.43
2022-12-20T08:31:49.674Z,53.33
2022-12-20T08:34:16.718Z,58.37
2022-12-20T08:36:43.608Z,56.47
2022-12-20T08:39:11.350Z,52.87
2022-12-20T08:41:37.820Z,53.77
2022-12-20T08:44:05.210Z,55.33
2022-12-20T08:46:31.613Z,56.33
2022-12-20T08:48:58.182Z,55.73
2022-12-20T08:51:24.655Z,51.33
2022-12-20T08:53:52.224Z,53.50
2022-12-20T08:56:18.616Z,49.20
2022-12-20T08:58:46.645Z,50.90
2022-12-20T09:01:16.719Z,56.30
2022-12-20T09:03:44.459Z,48.13
2022-12-20T09:06:16.614Z,52.83
2022-12-20T09:08:43.122Z,46.37
2022-12-20T09:11:15.386Z,55.10
2022-12-20T09:13:44.457Z,45.87
2022-12-20T09:16:13.015Z,44.53
2022-12-20T09:18:39.754Z,46.87
2022-12-20T09:21:08.496Z,51.53
2022-12-20T09:23:36.084Z,44.67
2022-12-20T09:26:16.759Z,50.53
2022-12-20T09:28:44.391Z,46.13
2022-12-20T09:31:13.112Z,46.40
2022-12-20T09:33:39.985Z,46.77
2022-12-20T09:36:07.307Z,46.83
2022-12-20T09:38:33.841Z,42.00
2022-12-20T09:41:04.980Z,45.37
2022-12-20T09:43:33.232Z,41.10
2022-12-20T09:46:02.149Z,40.93
2022-12-20T09:48:38.556Z,43.67
2022-12-20T09:51:17.623Z,45.70
2022-12-20T09:54:08.645Z,51.83
2022-12-20T09:56:44.934Z,46.33
2022-12-20T09:59:13.711Z,47.53
2022-12-20T10:01:44.749Z,44.47
2022-12-20T10:04:23.619Z,47.50
2022-12-20T10:07:14.584Z,41.23
2022-12-20T10:10:16.477Z,42.90
2022-12-20T10:13:04.722Z,36.77
2022-12-20T10:15:41.111Z,41.03
2022-12-20T10:18:25.738Z,45.07
2022-12-20T10:21:16.182Z,41.63
2022-12-20T10:23:42.426Z,47.93
2022-12-20T10:26:10.784Z,49.10
2022-12-20T10:28:40.900Z,42.40
2022-12-20T10:31:13.241Z,46.53
2022-12-20T10:33:41.013Z,44.07
2022-12-20T10:36:23.339Z,44.10
2022-12-20T10:38:52.351Z,48.80
2022-12-20T10:41:23.808Z,49.13
2022-12-20T10:44:01.109Z,53.60
2022-12-20T10:46:58.036Z,47.53
2022-12-20T10:49:36.835Z,42.53
2022-12-20T10:52:09.196Z,45.23
2022-12-20T10:54:38.067Z,44.47
2022-12-20T10:57:29.167Z,45.23
2022-12-20T11:00:02.767Z,43.77
2022-12-20T11:02:40.261Z,45.63
2022-12-20T11:05:11.152Z,43.03
2022-12-20T11:08:24.807Z,49.57
2022-12-20T11:10:37.758Z,46.07
2022-12-20T11:13:04.595Z,43.90
2022-12-20T11:15:35.889Z,50.37
2022-12-20T11:18:13.570Z,46.17
2022-12-20T11:20:58.516Z,49.90
2022-12-20T11:23:49.356Z,48.73
2022-12-20T11:26:54.133Z,47.20
2022-12-20T11:29:51.901Z,49.17
2022-12-20T11:32:41.785Z,46.73
2022-12-20T11:35:20.824Z,48.67
2022-12-20T11:38:09.454Z,49.53
2022-12-20T11:40:47.888Z,48.03
2022-12-20T11:43:54.202Z,49.23
2022-12-20T11:46:58.814Z,49.93
2022-12-20T11:49:46.768Z,50.37
2022-12-20T11:52:28.687Z,46.97
2022-12-20T11:55:04.508Z,50.17
2022-12-20T11:58:09.020Z,51.10
2022-12-20T12:00:28.853Z,49.47
2022-12-20T12:03:14.861Z,48.90
2022-12-20T12:05:47.616Z,48.27
2022-12-20T12:08:27.567Z,43.83
2022-12-20T12:11:39.820Z,46.80
2022-12-20T12:14:03.200Z,55.77
2022-12-20T12:16:37.207Z,47.90
2022-12-20T12:19:05.253Z,49.37
2022-12-20T12:21:38.905Z,48.60
2022-12-20T12:24:17.504Z,49.43
2022-12-20T12:26:43.822Z,49.13
2022-12-20T12:29:13.365Z,50.57
2022-12-20T12:31:55.236Z,46.90
2022-12-20T12:34:59.266Z,50.63
2022-12-20T12:37:44.434Z,45.07
2022-12-20T12:40:43.877Z,49.83
2022-12-20T12:43:37.956Z,47.07
2022-12-20T12:46:14.418Z,55.60
2022-12-20T12:49:02.307Z,48.17
2022-12-20T12:51:34.809Z,49.27
2022-12-20T12:54:17.431Z,43.33
2022-12-20T12:56:51.225Z,50.00
2022-12-20T12:59:32.820Z,47.40
2022-12-20T13:02:02.370Z,45.70
2022-12-20T13:04:49.835Z,50.37
2022-12-20T13:07:35.071Z,44.43
2022-12-20T13:10:29.520Z,45.17
2022-12-20T13:13:01.178Z,48.00
2022-12-20T13:15:27.525Z,47.13
2022-12-20T13:17:56.893Z,50.23
2022-12-20T13:20:25.727Z,47.40
2022-12-20T13:23:11.569Z,54.33
2022-12-20T13:25:49.332Z,47.10
2022-12-20T13:28:16.383Z,46.23
2022-12-20T13:30:43.956Z,42.80
2022-12-20T13:33:37.934Z,43.63
2022-12-20T13:36:10.372Z,45.50
2022-12-20T13:38:51.710Z,42.97
2022-12-20T13:41:34.202Z,45.20
2022-12-20T13:44:10.583Z,44.03
2022-12-20T13:47:00.176Z,43.30
2022-12-20T13:49:34.616Z,39.37
2022-12-20T13:52:17.230Z,45.93
2022-12-20T13:54:49.894Z,42.07
2022-12-20T13:57:20.870Z,41.93
2022-12-20T13:59:49.661Z,39.97
2022-12-20T14:02:22.756Z,41.07
2022-12-20T14:05:00.205Z,37.93
2022-12-20T14:07:29.483Z,43.77
2022-12-20T14:09:59.391Z,37.13
2022-12-20T14:12:32.890Z,43.57
2022-12-20T14:15:02.806Z,43.37
2022-12-20T14:17:32.192Z,41.43
2022-12-20T14:20:15.698Z,39.20
2022-12-20T14:23:06.744Z,41.47
2022-12-20T14:25:44.172Z,43.33
2022-12-20T14:28:28.412Z,37.80
2022-12-20T14:30:59.337Z,43.30
2022-12-20T14:33:30.261Z,40.73
2022-12-20T14:35:57.143Z,44.13
2022-12-20T14:38:30.705Z,35.90
2022-12-20T14:40:57.504Z,34.77
2022-12-20T14:43:33.883Z,31.73
2022-12-20T14:46:22.421Z,30.43
2022-12-20T14:48:48.932Z,31.60
2022-12-20T14:51:21.864Z,37.30
2022-12-20T14:53:51.035Z,30.27
2022-12-20T14:56:25.001Z,31.33
2022-12-20T14:59:13.118Z,31.57
2022-12-20T15:01:43.848Z,27.60
2022-12-20T15:04:33.018Z,27.07
2022-12-20T15:07:03.334Z,30.43
2022-12-20T15:09:29.605Z,37.00
2022-12-20T15:11:57.608Z,34.07
2022-12-20T15:14:23.855Z,33.87
2022-12-20T15:16:50.289Z,31.30
2022-12-20T15:19:16.673Z,33.37
2022-12-20T15:21:45.048Z,33.70
2022-12-20T15:24:16.569Z,36.57
2022-12-20T15:26:42.955Z,39.97
2022-12-20T15:29:17.316Z,37.27
2022-12-20T15:31:44.733Z,35.73
2022-12-20T15:34:20.166Z,41.67
2022-12-20T15:36:47.078Z,36.10
2022-12-20T15:39:14.455Z,36.63
2022-12-20T15:41:47.079Z,36.43
2022-12-20T15:44:19.149Z,37.37
2022-12-20T15:46:45.855Z,39.13
2022-12-20T15:49:23.311Z,36.20
2022-12-20T15:51:51.529Z,38.10
2022-12-20T15:54:24.217Z,42.60
2022-12-20T15:56:51.213Z,37.30
2022-12-20T15:59:57.781Z,41.97
2022-12-20T16:02:04.130Z,37.40
2022-12-20T16:04:30.549Z,42.70
2022-12-20T16:06:56.965Z,44.37
2022-12-20T16:09:25.710Z,42.37
2022-12-20T16:11:52.346Z,46.83
2022-12-20T16:14:23.571Z,40.00
2022-12-20T16:16:50.233Z,50.80
2022-12-20T16:19:17.267Z,41.17
2022-12-20T16:21:49.282Z,46.47
2022-12-20T16:24:20.094Z,38.27
2022-12-20T16:26:48.740Z,40.90
2022-12-20T16:29:15.932Z,39.17
2022-12-20T16:31:42.817Z,35.60
2022-12-20T16:34:15.035Z,33.23
2022-12-20T16:36:41.784Z,33.73
2022-12-20T16:39:10.093Z,39.47
2022-12-20T16:41:38.630Z,39.53
2022-12-20T16:44:05.119Z,37.50
2022-12-20T16:46:32.314Z,36.97
2022-12-20T16:49:00.704Z,35.70
2022-12-20T16:51:34.843Z,35.57
2022-12-20T16:54:20.776Z,32.70
2022-12-20T16:56:50.906Z,37.20
2022-12-20T16:59:19.792Z,35.37
2022-12-20T17:01:47.576Z,41.07
2022-12-20T17:04:16.123Z,34.03
2022-12-20T17:06:43.081Z,34.97
2022-12-20T17:09:10.397Z,33.03
2022-12-20T17:11:37.337Z,34.73
2022-12-20T17:14:10.330Z,40.20
2022-12-20T17:16:39.084Z,33.13
2022-12-20T17:19:05.508Z,38.83
2022-12-20T17:24:26.391Z,38.17
2022-12-20T17:26:52.721Z,34.60
2022-12-20T17:29:20.397Z,34.97
2022-12-20T17:31:47.757Z,35.83
2022-12-20T17:34:20.058Z,31.67
2022-12-20T17:36:48.104Z,34.20
2022-12-20T17:39:14.835Z,35.70
2022-12-20T17:41:44.854Z,37.57
2022-12-20T17:44:24.289Z,32.30
2022-12-20T17:46:50.909Z,37.90
2022-12-20T17:49:17.332Z,35.00
2022-12-20T17:51:43.845Z,37.03
2022-12-20T17:54:24.624Z,35.60
2022-12-20T17:56:51.339Z,36.97
2022-12-20T17:59:18.387Z,35.37
2022-12-20T18:01:46.467Z,33.20
2022-12-20T18:04:15.437Z,35.73
2022-12-20T18:06:44.683Z,35.33
2022-12-20T18:09:19.566Z,36.00
2022-12-20T18:11:46.635Z,34.07
2022-12-20T18:14:13.671Z,30.87
2022-12-20T18:16:40.322Z,34.63
2022-12-20T18:19:08.416Z,28.13
2022-12-20T18:21:34.926Z,31.33
2022-12-20T18:24:01.345Z,33.67
2022-12-20T18:26:32.525Z,34.77
2022-12-20T18:29:01.359Z,29.70
2022-12-20T18:31:30.541Z,33.13
2022-12-20T18:33:58.608Z,34.37
2022-12-20T18:36:36.176Z,34.03
2022-12-20T18:39:05.826Z,37.30
2022-12-20T18:41:32.617Z,32.17
2022-12-20T18:44:04.491Z,35.20
2022-12-20T18:46:31.016Z,30.17
2022-12-20T18:49:00.141Z,30.70
2022-12-20T18:51:32.913Z,28.57
2022-12-20T18:53:59.800Z,31.77
2022-12-20T18:56:32.432Z,28.90
2022-12-20T18:59:04.771Z,41.97
2022-12-20T19:01:37.042Z,31.90
2022-12-20T19:04:05.828Z,32.10
2022-12-20T19:06:33.222Z,34.63
2022-12-20T19:09:05.363Z,35.70
2022-12-20T19:11:31.895Z,39.13
2022-12-20T19:13:58.195Z,30.63
2022-12-20T19:16:32.515Z,32.47
2022-12-20T19:19:00.932Z,31.80
2022-12-20T19:21:32.748Z,35.17
2022-12-20T19:24:02.119Z,34.07
2022-12-20T19:26:29.573Z,32.83
2022-12-20T19:28:57.009Z,35.90
2022-12-20T19:31:28.409Z,40.47
2022-12-20T19:33:57.796Z,39.47
2022-12-20T19:36:26.512Z,43.80
2022-12-20T19:38:58.009Z,36.93
2022-12-20T19:41:26.972Z,39.07
2022-12-20T19:43:53.351Z,41.10
2022-12-20T19:46:28.472Z,39.07
2022-12-20T19:48:57.111Z,44.93
2022-12-20T19:51:23.919Z,49.73
2022-12-20T19:53:51.559Z,51.03
2022-12-20T19:56:20.750Z,40.43
2022-12-20T19:58:47.736Z,47.67
2022-12-20T20:01:15.276Z,44.67
2022-12-20T20:03:41.610Z,46.07
2022-12-20T20:06:08.620Z,43.67
2022-12-20T20:08:35.619Z,51.13
2022-12-20T20:11:09.082Z,43.53
2022-12-20T20:13:36.225Z,45.90
2022-12-20T20:16:03.859Z,51.63
2022-12-20T20:18:33.546Z,52.90
2022-12-20T20:20:59.936Z,54.17
2022-12-20T20:23:26.655Z,49.33
2022-12-20T20:25:59.970Z,43.20
2022-12-20T20:28:31.899Z,46.23
2022-12-20T20:31:00.413Z,48.13
2022-12-20T20:33:26.860Z,44.03
2022-12-20T20:35:55.282Z,47.40
2022-12-20T20:38:22.203Z,42.60
2022-12-20T20:40:48.742Z,43.67
2022-12-20T20:43:15.126Z,45.80
2022-12-20T20:45:41.426Z,45.00
2022-12-20T20:48:07.740Z,47.60
2022-12-20T20:50:34.128Z,47.07
2022-12-20T20:53:00.391Z,49.23
2022-12-20T20:55:26.696Z,52.63
2022-12-20T20:57:52.960Z,48.50
2022-12-20T21:00:19.431Z,45.30
2022-12-20T21:02:46.091Z,46.77
2022-12-20T21:07:59.152Z,48.63
2022-12-20T21:10:25.573Z,50.57
2022-12-20T21:12:52.046Z,48.10
2022-12-20T21:15:23.567Z,45.97
2022-12-20T21:17:50.385Z,47.83
2022-12-20T21:20:20.633Z,48.33
2022-12-20T21:22:50.303Z,40.30
2022-12-20T21:25:17.149Z,47.63
2022-12-20T21:27:43.465Z,53.17
2022-12-20T21:30:10.340Z,45.70
2022-12-20T21:32:36.600Z,45.30
2022-12-20T21:35:03.130Z,43.20
2022-12-20T21:37:33.432Z,42.77
2022-12-20T21:40:00.167Z,48.27
2022-12-20T21:42:26.633Z,41.87
2022-12-20T21:44:52.956Z,41.37
2022-12-20T21:47:19.979Z,39.93
2022-12-20T21:49:46.306Z,39.00
2022-12-20T21:52:12.633Z,37.60
2022-12-20T21:54:38.942Z,41.53
2022-12-20T21:57:05.259Z,38.33
2022-12-20T21:59:31.625Z,38.63
2022-12-20T22:01:58.204Z,43.20
2022-12-20T22:04:25.580Z,36.10
2022-12-20T22:06:51.862Z,38.33
2022-12-20T22:09:18.237Z,38.00
2022-12-20T22:11:47.876Z,39.50
2022-12-20T22:14:15.027Z,37.47
2022-12-20T22:16:42.203Z,36.00
2022-12-20T22:19:12.642Z,36.70
2022-12-20T22:21:38.913Z,37.53
2022-12-20T22:24:05.494Z,40.17
2022-12-20T22:26:33.228Z,36.07
2022-12-20T22:29:03.190Z,38.17
2022-12-20T22:31:30.401Z,35.13
2022-12-20T22:33:57.943Z,43.67
2022-12-20T22:36:25.378Z,36.17
2022-12-20T22:38:53.384Z,30.53
2022-12-20T22:41:25.032Z,32.23
2022-12-20T22:43:51.376Z,35.50
2022-12-20T22:46:18.316Z,26.63
2022-12-20T22:48:45.221Z,32.50
2022-12-20T22:51:21.621Z,30.60
2022-12-20T22:53:49.317Z,30.33
2022-12-20T22:56:18.633Z,33.47
2022-12-20T22:58:45.509Z,29.17
2022-12-20T23:01:14.258Z,30.83
2022-12-20T23:03:40.875Z,29.87
2022-12-20T23:06:10.441Z,34.43
2022-12-20T23:08:37.566Z,31.17
2022-12-20T23:11:28.060Z,33.00
2022-12-20T23:14:12.780Z,28.40
2022-12-20T23:16:39.148Z,25.90
2022-12-20T23:19:05.562Z,23.67
2022-12-20T23:21:50.531Z,31.10
2022-12-20T23:24:16.872Z,29.20
2022-12-20T23:26:43.284Z,27.17
2022-12-20T23:29:10.252Z,25.60
2022-12-20T23:31:36.948Z,23.60
2022-12-20T23:34:04.136Z,26.57
2022-12-20T23:36:33.097Z,23.90
2022-12-20T23:38:59.693Z,24.60
2022-12-20T23:41:26.036Z,26.33
2022-12-20T23:43:52.369Z,28.00
2022-12-20T23:46:19.936Z,27.37
2022-12-20T23:48:46.298Z,25.80
2022-12-20T23:51:12.923Z,25.43
2022-12-20T23:53:39.369Z,27.77
2022-12-20T23:56:14.858Z,24.40
2022-12-20T23:58:42.667Z,24.93
